Ouargla, Algeria
Current Conditions -  °F | °C
As of 7:00 PM on Thursday 30 Oct 2014 (Local Time) from DAUU Reporting Station
Clear Clear  
Wind Chill: 24°   Ceiling: Unl
Heat Index: 24°   Visibility: 6mi
Dew Point:   Wind: 5mph
Humidity: 34%   Direction: 40°NE
Pressure: 30.09"   Gusts: NA
Location:  31.92°N, 5.4°E
Report Text: DAUU 301800Z 04004KT CAVOK 24/07 Q1019
Loading
Personal Weather Stations






























Interactive Weather Map
Tropical Storm Tracking
New forecast layout! Learn more

10-Day Weather Forecast

Advertisements
Track Severe Weather on mobile